Time;durP1;ratioP1;P1;durP2;ratioP2;P2;SDS_P1;SDS_P2;PMS_P1;PMS_P2;Temp;Humidity;BMP_temperature;BMP_pressure;BME280_temperature;BME280_humidity;BME280_pressure;Samples;Min_cycle;Max_cycle;Signal;HPM_P1;HPM_P2
2023/05/16 00:00:52;;;;;;;13.10;9.02;;;9.00;99.90;;;;;;2056041;28;20484;-70
2023/05/16 00:01:53;;;;;;;15.93;10.68;;;9.10;99.90;;;;;;2046789;28;20275;-67
2023/05/16 00:02:54;;;;;;;15.43;9.73;;;9.10;99.90;;;;;;2055316;28;20297;-69
2023/05/16 00:03:58;;;;;;;13.80;10.30;;;9.20;99.90;;;;;;2067537;28;20213;-69
2023/05/16 00:05:00;;;;;;;16.40;9.73;;;9.30;99.90;;;;;;2068313;28;20190;-68
2023/05/16 00:06:01;;;;;;;17.73;11.03;;;9.20;99.90;;;;;;2057159;28;20187;-68
2023/05/16 00:07:02;;;;;;;14.43;11.10;;;9.30;99.90;;;;;;2060700;28;20214;-69
2023/05/16 00:08:05;;;;;;;20.95;10.98;;;9.30;99.90;;;;;;2055156;28;20681;-69
2023/05/16 00:09:06;;;;;;;15.57;10.20;;;9.40;99.90;;;;;;2058424;28;20241;-69
2023/05/16 00:10:08;;;;;;;16.52;11.57;;;9.40;99.90;;;;;;2058391;28;20326;-69
2023/05/16 00:11:09;;;;;;;21.20;11.45;;;9.40;99.90;;;;;;2058113;28;20258;-68
2023/05/16 00:12:10;;;;;;;15.05;11.05;;;9.50;99.90;;;;;;2054273;28;20265;-68
2023/05/16 00:13:12;;;;;;;18.83;11.37;;;9.40;99.90;;;;;;2048933;28;20243;-70
2023/05/16 00:14:14;;;;;;;17.35;11.15;;;9.50;99.90;;;;;;2054019;28;20290;-68
2023/05/16 00:15:19;;;;;;;16.17;11.10;;;9.50;99.90;;;;;;2056275;28;20235;-70
2023/05/16 00:16:20;;;;;;;17.73;12.32;;;9.60;99.90;;;;;;2058666;28;20234;-69
2023/05/16 00:17:21;;;;;;;14.97;11.17;;;9.60;99.90;;;;;;2065843;28;20233;-69
2023/05/16 00:18:24;;;;;;;18.20;11.32;;;9.60;99.90;;;;;;2052234;28;20239;-68
2023/05/16 00:19:26;;;;;;;16.23;10.20;;;9.60;99.90;;;;;;2055454;28;20321;-69
2023/05/16 00:20:28;;;;;;;15.55;11.57;;;9.60;99.90;;;;;;2060000;28;20233;-69
2023/05/16 00:21:29;;;;;;;16.92;11.30;;;9.70;99.90;;;;;;2070768;28;20251;-69
2023/05/16 00:22:30;;;;;;;14.43;10.85;;;9.80;99.90;;;;;;2068675;28;20225;-69
2023/05/16 00:23:31;;;;;;;16.13;12.23;;;9.90;99.90;;;;;;2061007;28;20708;-69
2023/05/16 00:24:33;;;;;;;14.68;10.68;;;9.90;99.90;;;;;;2053184;28;20449;-69
2023/05/16 00:25:35;;;;;;;14.40;11.15;;;9.90;99.90;;;;;;2055906;28;20278;-69
2023/05/16 00:26:36;;;;;;;17.48;11.02;;;10.00;99.90;;;;;;2056163;28;20580;-69
2023/05/16 00:27:37;;;;;;;13.50;10.43;;;10.00;99.90;;;;;;2053541;28;20243;-69
2023/05/16 00:28:37;;;;;;;17.23;11.27;;;10.10;99.90;;;;;;2049614;28;20276;-69
2023/05/16 00:29:38;;;;;;;15.80;11.07;;;10.10;99.90;;;;;;2052203;28;20283;-69
2023/05/16 00:30:39;;;;;;;14.47;10.70;;;10.10;99.90;;;;;;2060261;28;20668;-69
2023/05/16 00:31:41;;;;;;;15.63;10.52;;;10.10;99.90;;;;;;2066395;28;20749;-69
2023/05/16 00:32:42;;;;;;;14.02;9.93;;;10.00;99.90;;;;;;2061981;28;20269;-69
2023/05/16 00:33:43;;;;;;;14.98;10.60;;;10.00;99.90;;;;;;2063406;28;20222;-69
2023/05/16 00:34:44;;;;;;;14.47;11.57;;;10.10;99.90;;;;;;2057880;28;20222;-71
2023/05/16 00:35:45;;;;;;;17.10;10.77;;;10.10;99.90;;;;;;2065076;28;20187;-70
2023/05/16 00:36:45;;;;;;;15.50;10.87;;;10.00;99.90;;;;;;2064183;28;20179;-70
2023/05/16 00:37:46;;;;;;;14.77;10.60;;;10.00;99.90;;;;;;2045401;28;20275;-71
2023/05/16 00:38:47;;;;;;;13.80;9.53;;;10.00;99.90;;;;;;2060365;28;20195;-69
2023/05/16 00:39:48;;;;;;;15.27;10.43;;;9.90;99.90;;;;;;2061907;28;20206;-69
2023/05/16 00:40:49;;;;;;;13.63;9.87;;;10.00;99.90;;;;;;2060718;28;20183;-69
2023/05/16 00:41:51;;;;;;;13.18;9.65;;;10.00;99.90;;;;;;2058014;28;20205;-69
2023/05/16 00:42:52;;;;;;;13.65;10.07;;;10.10;99.90;;;;;;2060934;28;20251;-69
2023/05/16 00:43:52;;;;;;;13.55;10.40;;;10.10;99.90;;;;;;2062026;28;20190;-69
2023/05/16 00:44:53;;;;;;;15.37;10.33;;;10.10;99.90;;;;;;2060071;28;20187;-69
2023/05/16 00:45:54;;;;;;;14.80;10.97;;;10.20;99.90;;;;;;2059578;28;20187;-69
2023/05/16 00:46:55;;;;;;;14.38;9.98;;;10.10;99.90;;;;;;2060658;28;20182;-69
2023/05/16 00:47:56;;;;;;;12.67;9.83;;;10.10;99.90;;;;;;2054490;28;20749;-69
2023/05/16 00:48:57;;;;;;;14.30;10.02;;;10.10;99.90;;;;;;2069477;28;20198;-69
2023/05/16 00:49:58;;;;;;;15.07;10.80;;;10.10;99.90;;;;;;2070660;28;20213;-69
2023/05/16 00:51:00;;;;;;;14.47;9.93;;;10.20;99.90;;;;;;2064624;28;20273;-69
2023/05/16 00:52:02;;;;;;;14.15;10.45;;;10.10;99.90;;;;;;2052540;28;20226;-69
2023/05/16 00:53:03;;;;;;;15.48;10.63;;;10.20;99.90;;;;;;2055701;28;20226;-70
2023/05/16 00:54:06;;;;;;;16.13;11.03;;;10.20;99.90;;;;;;2058303;28;20322;-70
2023/05/16 00:55:09;;;;;;;14.77;10.07;;;10.30;99.90;;;;;;2059994;28;20231;-69
2023/05/16 00:56:10;;;;;;;13.38;9.38;;;10.30;99.90;;;;;;2051949;28;20231;-69
2023/05/16 00:57:11;;;;;;;14.30;10.20;;;10.40;99.90;;;;;;2053740;28;20598;-69
2023/05/16 00:58:12;;;;;;;18.53;10.03;;;10.50;99.90;;;;;;2048770;28;20231;-69
2023/05/16 00:59:14;;;;;;;13.63;9.40;;;10.50;99.90;;;;;;2050545;28;20230;-69
2023/05/16 01:00:16;;;;;;;13.70;9.85;;;10.50;99.90;;;;;;2059106;28;20820;-69
2023/05/16 01:01:20;;;;;;;12.52;9.25;;;10.50;99.90;;;;;;2069108;28;20236;-69
2023/05/16 01:02:21;;;;;;;13.57;9.80;;;10.50;99.90;;;;;;2068496;28;20708;-69
2023/05/16 01:03:22;;;;;;;13.03;9.57;;;10.60;99.90;;;;;;2067935;28;20218;-69
2023/05/16 01:04:24;;;;;;;13.90;10.27;;;10.60;99.90;;;;;;2062877;28;20222;-69
2023/05/16 01:05:24;;;;;;;15.50;10.52;;;10.60;99.90;;;;;;2060140;28;20234;-69
2023/05/16 01:06:25;;;;;;;14.93;10.73;;;10.70;99.90;;;;;;2063457;28;20228;-69
2023/05/16 01:07:26;;;;;;;14.13;10.68;;;10.70;99.90;;;;;;2063415;28;20343;-69
2023/05/16 01:08:27;;;;;;;15.43;10.13;;;10.60;99.90;;;;;;2062047;28;20239;-69
2023/05/16 01:09:28;;;;;;;15.63;10.02;;;10.60;99.90;;;;;;2058966;28;20262;-70
2023/05/16 01:11:00;;;;;;;15.80;10.80;;;10.60;99.90;;;;;;2058588;28;20727;-69
2023/05/16 01:12:44;;;;;;;13.75;9.23;;;10.60;99.90;;;;;;2056723;28;20296;-69
2023/05/16 01:13:55;;;;;;;13.65;10.07;;;10.60;99.90;;;;;;2048613;28;20223;-70
2023/05/16 01:15:07;;;;;;;12.20;8.80;;;10.60;99.90;;;;;;2055547;28;20266;-69
2023/05/16 01:17:01;;;;;;;13.95;9.57;;;10.60;99.90;;;;;;2054121;28;20238;-69
2023/05/16 01:18:32;;;;;;;12.70;9.35;;;10.50;99.90;;;;;;2057209;28;20214;-69
2023/05/16 01:19:57;;;;;;;14.18;9.82;;;10.50;99.90;;;;;;2050881;28;20718;-69
2023/05/16 01:21:02;;;;;;;14.68;10.43;;;10.50;99.90;;;;;;2053156;28;20349;-69
2023/05/16 01:22:20;;;;;;;15.32;10.00;;;10.40;99.90;;;;;;2056454;28;20759;-69
2023/05/16 01:23:57;;;;;;;13.70;9.48;;;10.40;99.90;;;;;;2055596;28;20302;-69
2023/05/16 01:25:30;;;;;;;15.57;10.60;;;10.50;99.90;;;;;;2048800;28;20307;-69
2023/05/16 01:26:31;;;;;;;14.43;10.13;;;10.40;99.90;;;;;;2055207;28;20334;-69
2023/05/16 01:27:34;;;;;;;15.25;9.70;;;10.40;99.90;;;;;;2039704;29;20439;-69
2023/05/16 01:28:37;;;;;;;14.88;10.18;;;10.20;99.90;;;;;;2048246;28;20227;-69
2023/05/16 01:29:38;;;;;;;15.48;10.23;;;10.30;99.90;;;;;;2044780;29;20259;-69
2023/05/16 01:30:42;;;;;;;13.02;10.35;;;10.40;99.90;;;;;;2040165;28;20260;-70
2023/05/16 01:31:44;;;;;;;12.65;10.05;;;10.40;99.90;;;;;;2054800;28;20226;-71
2023/05/16 01:32:45;;;;;;;14.57;10.07;;;10.50;99.90;;;;;;2047290;28;20331;-69
2023/05/16 01:33:47;;;;;;;12.60;9.32;;;10.50;99.90;;;;;;2057871;28;20178;-70
2023/05/16 01:34:51;;;;;;;13.15;9.90;;;10.60;99.90;;;;;;2058316;28;20186;-69
2023/05/16 01:36:05;;;;;;;15.07;9.68;;;10.50;99.90;;;;;;2050366;28;20183;-71
2023/05/16 01:37:20;;;;;;;14.55;8.90;;;10.50;99.90;;;;;;2060522;28;20226;-71
2023/05/16 01:39:06;;;;;;;13.43;9.32;;;10.50;99.90;;;;;;2037674;28;20678;-69
2023/05/16 01:40:20;;;;;;;13.93;9.52;;;10.50;99.90;;;;;;2052654;28;20801;-69
2023/05/16 01:41:28;;;;;;;15.93;9.75;;;10.50;99.90;;;;;;2058570;28;20222;-70
2023/05/16 01:42:34;;;;;;;15.27;10.40;;;10.50;99.90;;;;;;2063279;28;20257;-69
2023/05/16 01:43:45;;;;;;;15.23;9.77;;;10.50;99.90;;;;;;2064234;28;20234;-70
2023/05/16 01:45:26;;;;;;;14.95;10.07;;;10.60;99.90;;;;;;2057777;28;20222;-69
2023/05/16 01:46:33;;;;;;;15.30;10.52;;;10.50;99.90;;;;;;2058618;28;20229;-69
2023/05/16 01:47:40;;;;;;;16.10;9.35;;;10.50;99.90;;;;;;2047059;28;20266;-69
2023/05/16 01:48:53;;;;;;;15.52;10.15;;;10.60;99.90;;;;;;2048456;28;20223;-69
2023/05/16 01:50:09;;;;;;;14.25;10.85;;;10.50;99.90;;;;;;2061782;28;20222;-69
2023/05/16 01:51:12;;;;;;;13.38;9.85;;;10.50;99.90;;;;;;2061266;28;20237;-69
2023/05/16 01:52:44;;;;;;;14.13;10.30;;;10.60;99.90;;;;;;2062290;28;20356;-69
2023/05/16 01:53:46;;;;;;;13.05;9.93;;;10.50;99.90;;;;;;2060783;28;20255;-70
2023/05/16 01:54:52;;;;;;;13.85;9.90;;;10.50;99.90;;;;;;2054730;28;20229;-70
2023/05/16 01:55:59;;;;;;;15.38;10.52;;;10.50;99.90;;;;;;2047227;28;20686;-69
2023/05/16 01:57:02;;;;;;;13.98;9.82;;;10.60;99.90;;;;;;2055063;28;20183;-69
2023/05/16 01:58:04;;;;;;;15.13;10.23;;;10.60;99.90;;;;;;2055643;28;20189;-69
2023/05/16 01:59:07;;;;;;;14.02;9.63;;;10.60;99.90;;;;;;2047971;28;20238;-69
2023/05/16 02:00:08;;;;;;;15.35;9.63;;;10.50;99.90;;;;;;2061535;28;20230;-69
2023/05/16 02:01:10;;;;;;;13.60;10.05;;;10.60;99.90;;;;;;2054310;28;20318;-69
2023/05/16 02:02:11;;;;;;;14.48;10.73;;;10.70;99.90;;;;;;2055742;28;20234;-70
2023/05/16 02:03:12;;;;;;;14.75;11.02;;;10.70;99.90;;;;;;2055576;28;20226;-69
2023/05/16 02:04:14;;;;;;;16.23;10.13;;;10.70;99.90;;;;;;2056765;28;20334;-69
2023/05/16 02:05:15;;;;;;;13.55;9.07;;;10.70;99.90;;;;;;2063197;28;20772;-69
2023/05/16 02:06:16;;;;;;;13.60;9.77;;;10.60;99.90;;;;;;2061558;28;20237;-69
2023/05/16 02:07:17;;;;;;;13.63;10.30;;;10.50;99.90;;;;;;2060204;28;20244;-70
2023/05/16 02:08:18;;;;;;;15.13;10.25;;;10.60;99.90;;;;;;2070641;28;20250;-69
2023/05/16 02:09:19;;;;;;;15.73;10.67;;;10.60;99.90;;;;;;2066992;28;20240;-69
2023/05/16 02:10:21;;;;;;;16.50;10.13;;;10.60;99.90;;;;;;2063844;28;20313;-69
2023/05/16 02:11:22;;;;;;;13.55;10.05;;;10.60;99.90;;;;;;2059495;28;20272;-70
2023/05/16 02:12:24;;;;;;;13.40;9.30;;;10.60;99.90;;;;;;2060516;28;20324;-69
2023/05/16 02:13:25;;;;;;;14.65;10.35;;;10.60;99.90;;;;;;2047423;28;20249;-69
2023/05/16 02:14:26;;;;;;;13.37;9.17;;;10.60;99.90;;;;;;2047507;28;20249;-69
2023/05/16 02:15:27;;;;;;;13.93;8.83;;;10.50;99.90;;;;;;2070952;28;20313;-69
2023/05/16 02:16:30;;;;;;;14.73;10.20;;;10.50;99.90;;;;;;2061120;28;20250;-69
2023/05/16 02:17:31;;;;;;;15.48;9.98;;;10.60;99.90;;;;;;2052542;28;20717;-69
2023/05/16 02:18:32;;;;;;;12.90;9.23;;;10.60;99.90;;;;;;2049618;28;20593;-69
2023/05/16 02:19:33;;;;;;;14.73;9.83;;;10.60;99.90;;;;;;2049267;28;20273;-69
2023/05/16 02:20:38;;;;;;;12.70;10.20;;;10.70;99.90;;;;;;2045727;28;20262;-70
2023/05/16 02:21:39;;;;;;;13.30;9.32;;;10.70;99.90;;;;;;2054184;28;20234;-69
2023/05/16 02:22:41;;;;;;;14.90;9.77;;;10.70;99.90;;;;;;2058776;28;20265;-70
2023/05/16 02:23:43;;;;;;;12.43;9.45;;;10.60;99.90;;;;;;2060225;28;21153;-70
2023/05/16 02:24:44;;;;;;;12.93;9.60;;;10.60;99.90;;;;;;2056675;28;20219;-72
2023/05/16 02:25:44;;;;;;;13.43;9.73;;;10.50;99.90;;;;;;2053800;28;20666;-68
2023/05/16 02:26:45;;;;;;;11.77;9.17;;;10.60;99.90;;;;;;2055440;28;20190;-68
2023/05/16 02:27:48;;;;;;;14.00;10.13;;;10.60;99.90;;;;;;2061211;28;20185;-68
2023/05/16 02:28:48;;;;;;;12.50;9.32;;;10.70;99.90;;;;;;2060229;28;20187;-68
2023/05/16 02:29:51;;;;;;;14.17;9.17;;;10.70;99.90;;;;;;2056631;28;20602;-68
2023/05/16 02:30:57;;;;;;;14.82;9.60;;;10.70;99.90;;;;;;2058928;28;20337;-68
2023/05/16 02:31:58;;;;;;;14.95;9.68;;;10.70;99.90;;;;;;2048923;28;20184;-68
2023/05/16 02:33:00;;;;;;;11.60;9.02;;;10.80;99.90;;;;;;2049283;28;20222;-69
2023/05/16 02:34:01;;;;;;;14.38;9.63;;;10.70;99.90;;;;;;2058319;28;20676;-68
2023/05/16 02:35:03;;;;;;;13.55;9.80;;;10.70;99.90;;;;;;2059996;28;20273;-68
2023/05/16 02:36:04;;;;;;;11.57;8.70;;;10.70;99.90;;;;;;2054208;28;20242;-68
2023/05/16 02:37:05;;;;;;;13.30;9.43;;;10.70;99.90;;;;;;2058768;28;20664;-68
2023/05/16 02:38:05;;;;;;;13.00;9.10;;;10.70;99.90;;;;;;2054188;28;20218;-68
2023/05/16 02:39:09;;;;;;;12.87;9.20;;;10.80;99.90;;;;;;2059689;28;20731;-68
2023/05/16 02:40:10;;;;;;;16.10;9.48;;;10.70;99.90;;;;;;2061483;28;20309;-68
2023/05/16 02:41:11;;;;;;;12.25;9.23;;;10.70;99.90;;;;;;2059009;28;20280;-67
2023/05/16 02:42:12;;;;;;;12.27;9.17;;;10.70;99.90;;;;;;2051975;28;20425;-68
2023/05/16 02:43:13;;;;;;;12.02;8.80;;;10.80;99.90;;;;;;2055554;28;20245;-68
2023/05/16 02:44:15;;;;;;;13.50;9.13;;;10.70;99.90;;;;;;2046624;28;20237;-68
2023/05/16 02:45:16;;;;;;;14.25;9.27;;;10.70;99.90;;;;;;2053559;28;20227;-68
2023/05/16 02:46:30;;;;;;;13.23;8.85;;;10.70;99.90;;;;;;2061226;28;20804;-68
2023/05/16 02:47:31;;;;;;;14.77;10.23;;;10.80;99.90;;;;;;2063758;28;20233;-70
2023/05/16 02:48:32;;;;;;;12.85;9.50;;;10.80;99.90;;;;;;2057857;28;20222;-68
2023/05/16 02:49:33;;;;;;;11.43;8.63;;;10.80;99.90;;;;;;2060025;28;20593;-69
2023/05/16 02:50:34;;;;;;;12.10;8.90;;;10.70;99.90;;;;;;2056040;28;20223;-69
2023/05/16 02:51:35;;;;;;;13.25;8.65;;;10.70;99.90;;;;;;2056040;28;20653;-69
2023/05/16 02:52:35;;;;;;;13.03;9.20;;;10.70;99.90;;;;;;2053506;28;20231;-69
2023/05/16 02:53:36;;;;;;;12.10;9.03;;;10.70;99.90;;;;;;2062659;28;20317;-69
2023/05/16 02:54:37;;;;;;;11.97;8.87;;;10.70;99.90;;;;;;2048739;28;20243;-69
2023/05/16 02:55:37;;;;;;;11.87;9.30;;;10.70;99.90;;;;;;2047936;28;20224;-71
2023/05/16 02:56:39;;;;;;;12.33;9.30;;;10.70;99.90;;;;;;2060535;28;20722;-69
2023/05/16 02:57:39;;;;;;;12.77;8.93;;;10.70;99.90;;;;;;2048772;28;20231;-68
2023/05/16 02:58:42;;;;;;;14.03;9.47;;;10.70;99.90;;;;;;2054665;28;20653;-69
2023/05/16 02:59:43;;;;;;;12.57;8.93;;;10.70;99.90;;;;;;2044968;28;20231;-69
2023/05/16 03:00:43;;;;;;;13.97;9.70;;;10.60;99.90;;;;;;2051521;28;20259;-71
2023/05/16 03:01:45;;;;;;;14.23;10.13;;;10.50;99.90;;;;;;2058284;28;20197;-71
2023/05/16 03:02:46;;;;;;;11.00;8.63;;;10.60;99.90;;;;;;2055435;28;20225;-68
2023/05/16 03:03:47;;;;;;;13.70;8.97;;;10.50;99.90;;;;;;2054226;28;20211;-69
2023/05/16 03:04:48;;;;;;;12.97;9.70;;;10.60;99.90;;;;;;2056450;28;20190;-69
2023/05/16 03:05:50;;;;;;;15.95;9.50;;;10.60;99.90;;;;;;2059413;28;20187;-69
2023/05/16 03:06:51;;;;;;;14.65;9.32;;;10.60;99.90;;;;;;2057288;28;20191;-68
2023/05/16 03:07:52;;;;;;;15.77;9.17;;;10.60;99.90;;;;;;2047241;28;20188;-68
2023/05/16 03:08:52;;;;;;;15.13;9.82;;;10.60;99.90;;;;;;2061400;28;20229;-69
2023/05/16 03:09:53;;;;;;;12.53;9.27;;;10.70;99.90;;;;;;2056936;28;20202;-69
2023/05/16 03:10:55;;;;;;;11.57;8.23;;;10.60;99.90;;;;;;2064195;28;20691;-69
2023/05/16 03:11:55;;;;;;;13.88;9.48;;;10.60;99.90;;;;;;2058660;28;20266;-69
2023/05/16 03:12:56;;;;;;;13.00;9.63;;;10.70;99.90;;;;;;2059553;28;20215;-69
2023/05/16 03:13:58;;;;;;;13.02;9.13;;;10.70;99.90;;;;;;2070900;28;20583;-69
2023/05/16 03:15:00;;;;;;;14.15;9.85;;;10.60;99.90;;;;;;2059699;28;20297;-68
2023/05/16 03:16:01;;;;;;;14.85;10.38;;;10.60;99.90;;;;;;2052272;28;20179;-69
2023/05/16 03:17:02;;;;;;;13.70;9.80;;;10.50;99.90;;;;;;2064179;28;20186;-69
2023/05/16 03:18:04;;;;;;;15.57;9.57;;;10.50;99.90;;;;;;2063838;28;20288;-69
2023/05/16 03:19:06;;;;;;;16.73;10.37;;;10.40;99.90;;;;;;2058678;28;20902;-69
2023/05/16 03:20:08;;;;;;;12.75;9.60;;;10.50;99.90;;;;;;2067567;28;20228;-68
2023/05/16 03:21:09;;;;;;;14.50;10.15;;;10.40;99.90;;;;;;2061352;28;20365;-69
2023/05/16 03:22:09;;;;;;;11.47;8.80;;;10.30;99.90;;;;;;2055621;28;20226;-69
2023/05/16 03:23:12;;;;;;;14.57;9.70;;;10.30;99.90;;;;;;2055758;28;20231;-68
2023/05/16 03:24:12;;;;;;;14.57;10.07;;;10.40;99.90;;;;;;2057073;28;20285;-69
2023/05/16 03:25:14;;;;;;;15.53;9.80;;;10.40;99.90;;;;;;2062415;28;20312;-69
2023/05/16 03:26:14;;;;;;;14.82;9.52;;;10.40;99.90;;;;;;2054534;28;20234;-69
2023/05/16 03:27:16;;;;;;;14.00;9.83;;;10.40;99.90;;;;;;2060726;28;20576;-69
2023/05/16 03:28:17;;;;;;;13.88;10.57;;;10.40;99.90;;;;;;2052018;28;20618;-69
2023/05/16 03:29:18;;;;;;;16.83;10.30;;;10.40;99.90;;;;;;2056575;28;20246;-70
2023/05/16 03:30:19;;;;;;;15.20;10.27;;;10.40;99.90;;;;;;2053085;28;20231;-69
2023/05/16 03:31:20;;;;;;;20.17;12.18;;;10.40;99.90;;;;;;2051613;28;20234;-69
2023/05/16 03:32:21;;;;;;;18.97;11.93;;;10.30;99.90;;;;;;2049739;28;20266;-69
2023/05/16 03:33:23;;;;;;;17.73;11.40;;;10.20;99.90;;;;;;2055124;28;20706;-70
2023/05/16 03:34:23;;;;;;;17.92;11.63;;;10.30;99.90;;;;;;2060292;28;20226;-69
2023/05/16 03:35:25;;;;;;;16.60;11.13;;;10.40;99.90;;;;;;2062057;28;20317;-69
2023/05/16 03:36:26;;;;;;;18.05;11.82;;;10.40;99.90;;;;;;2067981;28;20225;-69
2023/05/16 03:37:27;;;;;;;15.10;10.75;;;10.50;99.90;;;;;;2047631;28;20409;-69
2023/05/16 03:38:28;;;;;;;18.37;12.13;;;10.40;99.90;;;;;;2047332;28;20231;-69
2023/05/16 03:39:29;;;;;;;16.17;10.65;;;10.40;99.90;;;;;;2064638;28;20222;-69
2023/05/16 03:40:30;;;;;;;18.77;12.37;;;10.50;99.90;;;;;;2058798;28;20234;-69
2023/05/16 03:41:31;;;;;;;16.92;11.50;;;10.60;99.90;;;;;;2055656;28;20227;-69
2023/05/16 03:42:31;;;;;;;15.57;10.60;;;10.60;99.90;;;;;;2061656;28;20230;-69
2023/05/16 03:43:32;;;;;;;17.10;10.77;;;10.60;99.90;;;;;;2061523;28;20238;-69
2023/05/16 03:44:33;;;;;;;17.50;11.87;;;10.60;99.90;;;;;;2063356;28;20270;-69
2023/05/16 03:45:34;;;;;;;17.13;11.87;;;10.50;99.90;;;;;;2059487;28;20254;-69
2023/05/16 03:46:35;;;;;;;18.80;12.60;;;10.50;99.90;;;;;;2059886;28;20982;-69
2023/05/16 03:47:36;;;;;;;16.67;11.57;;;10.50;99.90;;;;;;2056116;28;20288;-69
2023/05/16 03:48:37;;;;;;;18.27;12.23;;;10.50;99.90;;;;;;2046994;28;20820;-69
2023/05/16 03:49:38;;;;;;;16.88;11.93;;;10.50;99.90;;;;;;2046956;28;20223;-69
2023/05/16 03:50:40;;;;;;;19.47;12.00;;;10.50;99.90;;;;;;2054361;28;20705;-69
2023/05/16 03:51:42;;;;;;;21.05;13.52;;;10.50;99.90;;;;;;2052906;28;20227;-69
2023/05/16 03:52:44;;;;;;;17.20;11.35;;;10.50;99.90;;;;;;2062175;28;20230;-69
2023/05/16 03:53:45;;;;;;;15.45;10.85;;;10.50;99.90;;;;;;2061133;28;20233;-69
2023/05/16 03:54:46;;;;;;;18.23;11.93;;;10.50;99.90;;;;;;2052669;28;20180;-69
2023/05/16 03:55:46;;;;;;;20.00;12.23;;;10.50;99.90;;;;;;2050257;28;20207;-69
2023/05/16 03:56:49;;;;;;;18.47;11.53;;;10.50;99.90;;;;;;2055289;28;20182;-69
2023/05/16 03:57:51;;;;;;;20.90;13.45;;;10.50;99.90;;;;;;2059071;28;20179;-69
2023/05/16 03:58:52;;;;;;;19.77;12.63;;;10.60;99.90;;;;;;2054489;28;20238;-69
2023/05/16 03:59:53;;;;;;;20.25;13.05;;;10.60;99.90;;;;;;2055601;28;20734;-69
2023/05/16 04:00:53;;;;;;;21.30;13.50;;;10.60;99.90;;;;;;2055791;28;20194;-69
2023/05/16 04:01:54;;;;;;;22.77;12.83;;;10.60;99.90;;;;;;2048429;28;20187;-68
2023/05/16 04:02:55;;;;;;;23.07;14.47;;;10.60;99.90;;;;;;2058284;28;20203;-69
2023/05/16 04:03:56;;;;;;;22.93;15.03;;;10.60;99.90;;;;;;2053375;28;20654;-69
2023/05/16 04:04:56;;;;;;;22.73;14.13;;;10.40;99.90;;;;;;2067190;28;20185;-69
2023/05/16 04:05:58;;;;;;;21.97;14.07;;;10.30;99.90;;;;;;2057765;28;20620;-69
2023/05/16 04:07:00;;;;;;;23.42;14.00;;;10.30;99.90;;;;;;2044535;28;20686;-69
2023/05/16 04:08:01;;;;;;;22.33;13.88;;;10.20;99.90;;;;;;2057283;28;20689;-69
2023/05/16 04:09:02;;;;;;;25.27;13.55;;;10.20;99.90;;;;;;2060139;28;20210;-69
2023/05/16 04:10:04;;;;;;;18.60;12.60;;;10.30;99.90;;;;;;2052496;28;20190;-69
2023/05/16 04:11:05;;;;;;;21.17;14.43;;;10.30;99.90;;;;;;2047451;28;20234;-69
2023/05/16 04:12:06;;;;;;;21.70;14.83;;;10.30;99.90;;;;;;2050841;28;20269;-68
2023/05/16 04:13:07;;;;;;;20.42;13.85;;;10.30;99.90;;;;;;2055597;28;20238;-69
2023/05/16 04:14:08;;;;;;;22.00;13.88;;;10.40;99.90;;;;;;2054118;28;20230;-69
2023/05/16 04:15:09;;;;;;;26.00;14.77;;;10.40;99.90;;;;;;2062275;28;20736;-69
2023/05/16 04:16:11;;;;;;;24.52;15.25;;;10.40;99.90;;;;;;2057066;28;20242;-68
2023/05/16 04:17:12;;;;;;;21.77;14.30;;;10.30;99.90;;;;;;2056750;28;20725;-69
2023/05/16 04:18:13;;;;;;;24.47;15.87;;;10.30;99.90;;;;;;2056979;28;20240;-68
2023/05/16 04:19:14;;;;;;;24.50;15.40;;;10.20;99.90;;;;;;2057464;28;20242;-69
2023/05/16 04:20:15;;;;;;;20.20;13.53;;;10.20;99.90;;;;;;2061184;28;20734;-68
2023/05/16 04:21:17;;;;;;;23.52;14.63;;;10.20;99.90;;;;;;2062897;28;20681;-69
2023/05/16 04:22:24;;;;;;;20.58;13.70;;;10.10;99.90;;;;;;2055675;28;20239;-68
2023/05/16 04:23:25;;;;;;;26.95;15.30;;;10.10;99.90;;;;;;2052069;28;20349;-69
2023/05/16 04:24:27;;;;;;;25.45;14.65;;;10.20;99.90;;;;;;2045946;29;20227;-69
2023/05/16 04:25:28;;;;;;;21.13;14.20;;;10.20;99.90;;;;;;2037473;28;20236;-69
2023/05/16 04:26:29;;;;;;;25.87;16.53;;;10.10;99.90;;;;;;2062574;28;20280;-69
2023/05/16 04:27:30;;;;;;;26.33;15.93;;;10.20;99.90;;;;;;2060169;28;20256;-69
2023/05/16 04:28:31;;;;;;;22.95;15.18;;;10.20;99.90;;;;;;2055844;28;20226;-69
2023/05/16 04:29:32;;;;;;;24.83;14.48;;;10.10;99.90;;;;;;2048161;28;20828;-69
2023/05/16 04:30:35;;;;;;;25.02;15.38;;;10.10;99.90;;;;;;2054374;28;20242;-69
2023/05/16 04:31:36;;;;;;;26.40;15.20;;;10.00;99.90;;;;;;2053690;28;20733;-69
2023/05/16 04:32:36;;;;;;;24.73;14.73;;;10.10;99.90;;;;;;2048113;28;20234;-69
2023/05/16 04:33:37;;;;;;;25.00;15.30;;;10.10;99.90;;;;;;2051683;28;20243;-69
2023/05/16 04:34:38;;;;;;;25.13;15.57;;;10.10;99.90;;;;;;2063511;28;20349;-68
2023/05/16 04:35:39;;;;;;;24.55;13.88;;;10.10;99.90;;;;;;2070915;28;20236;-68
2023/05/16 04:36:40;;;;;;;20.57;14.40;;;10.20;99.90;;;;;;2069144;28;20236;-69
2023/05/16 04:37:41;;;;;;;25.73;15.88;;;10.20;99.90;;;;;;2070270;28;20332;-69
2023/05/16 04:38:42;;;;;;;24.17;13.93;;;10.10;99.90;;;;;;2056523;28;20237;-69
2023/05/16 04:39:43;;;;;;;23.17;14.70;;;10.10;99.90;;;;;;2056039;28;20306;-69
2023/05/16 04:40:44;;;;;;;25.07;15.37;;;10.20;99.90;;;;;;2057812;28;20293;-69
2023/05/16 04:41:46;;;;;;;24.88;15.68;;;10.20;99.90;;;;;;2053552;28;20203;-68
2023/05/16 04:42:46;;;;;;;23.10;14.57;;;10.40;99.90;;;;;;2039699;28;20239;-68
2023/05/16 04:43:48;;;;;;;23.77;15.13;;;10.40;99.90;;;;;;2053633;28;20195;-68
2023/05/16 04:44:49;;;;;;;22.75;15.15;;;10.40;99.90;;;;;;2061131;28;20663;-68
2023/05/16 04:45:52;;;;;;;27.77;15.70;;;10.40;99.90;;;;;;2056993;28;20235;-68
2023/05/16 04:46:54;;;;;;;28.52;16.77;;;10.40;99.90;;;;;;2059134;28;20197;-68
2023/05/16 04:47:55;;;;;;;26.60;15.50;;;10.40;99.90;;;;;;2058567;28;20191;-68
2023/05/16 04:48:56;;;;;;;27.92;15.27;;;10.40;99.90;;;;;;2056906;28;20183;-69
2023/05/16 04:49:57;;;;;;;29.97;16.87;;;10.50;99.90;;;;;;2069000;28;20190;-68
2023/05/16 04:50:58;;;;;;;33.00;18.65;;;10.40;99.90;;;;;;2068697;28;20186;-68
2023/05/16 04:51:59;;;;;;;28.73;17.50;;;10.30;99.90;;;;;;2055792;28;20179;-69
2023/05/16 04:53:00;;;;;;;29.52;16.92;;;10.20;99.90;;;;;;2058368;28;20234;-69
2023/05/16 04:54:00;;;;;;;27.50;16.83;;;10.20;99.90;;;;;;2062274;28;20178;-69
2023/05/16 04:55:01;;;;;;;33.30;17.60;;;10.20;99.90;;;;;;2069352;28;20219;-69
2023/05/16 04:56:04;;;;;;;28.37;17.57;;;10.20;99.90;;;;;;2059014;28;20184;-68
2023/05/16 04:57:05;;;;;;;32.33;17.70;;;10.30;99.90;;;;;;2058889;28;20230;-68
2023/05/16 04:58:07;;;;;;;32.67;17.37;;;10.30;99.90;;;;;;2061536;28;20233;-68
2023/05/16 04:59:07;;;;;;;28.83;17.90;;;10.40;99.90;;;;;;2051897;28;20289;-68
2023/05/16 05:00:10;;;;;;;29.30;18.23;;;10.20;99.90;;;;;;2054573;28;20265;-69
2023/05/16 05:01:11;;;;;;;29.05;17.50;;;10.10;99.90;;;;;;2063950;28;20230;-68
2023/05/16 05:02:12;;;;;;;32.90;17.73;;;10.10;99.90;;;;;;2060902;28;20316;-68
2023/05/16 05:03:13;;;;;;;33.40;18.73;;;10.00;99.90;;;;;;2056733;28;20230;-70
2023/05/16 05:04:14;;;;;;;31.58;18.23;;;9.90;99.90;;;;;;2049952;28;20221;-70
2023/05/16 05:05:15;;;;;;;36.87;19.50;;;10.00;99.90;;;;;;2057725;28;20254;-69
2023/05/16 05:06:15;;;;;;;37.53;19.80;;;9.90;99.90;;;;;;2052550;28;20902;-70
2023/05/16 05:07:16;;;;;;;35.47;19.30;;;9.90;99.90;;;;;;2056080;28;20301;-70
2023/05/16 05:08:20;;;;;;;37.93;20.03;;;9.90;99.90;;;;;;2066550;28;20721;-70
2023/05/16 05:09:22;;;;;;;38.72;20.75;;;9.90;99.90;;;;;;2060038;28;20700;-70
2023/05/16 05:10:23;;;;;;;36.55;19.83;;;9.90;99.90;;;;;;2044609;29;20266;-68
2023/05/16 05:11:23;;;;;;;32.83;18.43;;;9.90;99.90;;;;;;2053547;28;20840;-69
2023/05/16 05:12:26;;;;;;;35.63;20.37;;;9.90;99.90;;;;;;2064013;28;20647;-70
2023/05/16 05:13:29;;;;;;;41.13;19.35;;;9.90;99.90;;;;;;2050454;28;20699;-69
2023/05/16 05:14:30;;;;;;;44.53;21.40;;;9.90;99.90;;;;;;2052924;28;20235;-70
2023/05/16 05:15:31;;;;;;;38.20;20.10;;;9.80;99.90;;;;;;2060115;28;20240;-69
2023/05/16 05:16:32;;;;;;;37.25;20.15;;;9.70;99.90;;;;;;2047137;28;20615;-70
2023/05/16 05:17:33;;;;;;;42.10;21.47;;;9.70;99.90;;;;;;2061608;28;20238;-70
2023/05/16 05:18:33;;;;;;;39.57;21.23;;;9.70;99.90;;;;;;2047062;28;20322;-70
2023/05/16 05:19:34;;;;;;;38.17;20.63;;;9.80;99.90;;;;;;2048964;28;20243;-67
2023/05/16 05:20:35;;;;;;;41.10;21.13;;;9.80;99.90;;;;;;2063621;28;20675;-68
2023/05/16 05:21:36;;;;;;;36.57;20.70;;;9.90;99.90;;;;;;2063874;28;20241;-67